Time;durP1;ratioP1;P1;durP2;ratioP2;P2;SDS_P1;SDS_P2;PMS_P1;PMS_P2;Temp;Humidity;BMP_temperature;BMP_pressure;BME280_temperature;BME280_humidity;BME280_pressure;Samples;Min_cycle;Max_cycle;Signal;HPM_P1;HPM_P2
2023/08/12 00:00:09;;;;;;;1.25;1.15;;;;;;;28.07;45.06;101709.66;4909798;28;96832;-79
2023/08/12 00:02:36;;;;;;;1.42;1.25;;;;;;;28.07;44.79;101707.75;4918023;28;96695;-79
2023/08/12 00:05:03;;;;;;;1.42;1.10;;;;;;;28.07;45.03;101705.00;4912776;28;97775;-79
2023/08/12 00:07:30;;;;;;;1.30;1.20;;;;;;;28.07;44.79;101706.91;4916716;28;96785;-79
2023/08/12 00:09:56;;;;;;;1.30;1.20;;;;;;;28.07;44.87;101693.94;4914046;28;96645;-79
2023/08/12 00:12:23;;;;;;;3.17;1.17;;;;;;;28.06;44.96;101699.66;4914583;28;96920;-79
2023/08/12 00:14:50;;;;;;;1.27;1.08;;;;;;;28.06;44.97;101706.03;4917277;28;97850;-79
2023/08/12 00:17:16;;;;;;;1.30;1.10;;;;;;;28.07;44.90;101701.38;4915389;28;96594;-80
2023/08/12 00:19:43;;;;;;;1.20;1.10;;;;;;;28.07;44.98;101695.84;4920153;28;96746;-79
2023/08/12 00:22:09;;;;;;;1.17;0.93;;;;;;;28.08;44.75;101700.31;4923099;28;96962;-79
2023/08/12 00:24:36;;;;;;;1.05;0.95;;;;;;;28.07;44.87;101704.13;4918856;28;97911;-79
2023/08/12 00:27:02;;;;;;;1.30;1.20;;;;;;;28.06;44.88;101697.75;4922706;28;97431;-79
2023/08/12 00:29:29;;;;;;;1.50;1.08;;;;;;;28.06;44.82;101688.63;4923068;28;96911;-79
2023/08/12 00:31:56;;;;;;;1.63;1.40;;;;;;;28.06;45.05;101695.00;4917884;28;97010;-79
2023/08/12 00:34:22;;;;;;;1.40;1.20;;;;;;;28.06;45.06;101689.47;4913528;28;97921;-80
2023/08/12 00:36:49;;;;;;;1.17;1.02;;;;;;;28.05;44.75;101696.06;4896684;28;98401;-79
2023/08/12 00:39:16;;;;;;;1.58;1.30;;;;;;;28.06;45.17;101685.84;4908623;28;96815;-79
2023/08/12 00:41:42;;;;;;;1.27;1.15;;;;;;;28.06;44.96;101692.25;4917717;28;96633;-79
2023/08/12 00:44:09;;;;;;;1.90;1.15;;;;;;;28.06;44.98;101688.63;4910981;28;97040;-79
2023/08/12 00:46:38;;;;;;;1.65;1.33;;;;;;;28.06;45.09;101683.09;4918254;28;97404;-79
2023/08/12 00:49:05;;;;;;;1.30;1.10;;;;;;;28.06;45.03;101674.81;4913765;28;96789;-79
2023/08/12 00:51:31;;;;;;;1.33;1.17;;;;;;;28.06;45.03;101672.91;4917573;28;97038;-79
2023/08/12 00:53:59;;;;;;;1.25;0.90;;;;;;;28.06;44.94;101672.06;4897835;28;98116;-79
2023/08/12 00:56:27;;;;;;;1.52;1.30;;;;;;;28.05;44.91;101660.16;4914022;28;99491;-79
2023/08/12 00:58:53;;;;;;;1.20;1.10;;;;;;;28.06;44.88;101652.72;4895996;28;96948;-79
2023/08/12 01:01:20;;;;;;;1.20;1.10;;;;;;;28.05;45.14;101657.38;4918429;28;96710;-79
2023/08/12 01:03:47;;;;;;;1.33;1.23;;;;;;;28.07;45.20;101657.19;4913171;28;97946;-79
2023/08/12 01:06:14;;;;;;;1.77;1.35;;;;;;;28.06;45.21;101652.72;4917598;28;98018;-79
2023/08/12 01:08:40;;;;;;;1.50;1.30;;;;;;;28.06;44.94;101649.97;4916483;28;96732;-79
2023/08/12 01:11:16;;;;;;;1.20;1.10;;;;;;;28.06;45.09;101652.72;4906016;28;97297;-79
2023/08/12 01:13:54;;;;;;;1.50;1.17;;;;;;;28.05;44.93;101643.59;4906802;28;98888;-79
2023/08/12 01:16:22;;;;;;;1.20;1.02;;;;;;;28.05;45.08;101639.97;4919156;28;99528;-79
2023/08/12 01:18:50;;;;;;;1.52;1.10;;;;;;;28.05;45.09;101640.81;4918633;28;96792;-79
2023/08/12 01:21:19;;;;;;;1.52;1.30;;;;;;;28.06;45.08;101638.91;4930003;28;96687;-79
2023/08/12 01:23:46;;;;;;;1.10;1.00;;;;;;;28.05;45.16;101648.25;4928416;28;97671;-79
2023/08/12 01:26:13;;;;;;;2.58;1.20;;;;;;;28.05;45.15;101640.81;4925243;28;98118;-79
2023/08/12 01:28:39;;;;;;;1.60;1.30;;;;;;;28.05;45.23;101643.59;4928093;28;96768;-79
2023/08/12 01:31:14;;;;;;;2.33;1.00;;;;;;;28.05;45.18;101632.53;4920407;28;96960;-79
2023/08/12 01:34:20;;;;;;;1.30;1.20;;;;;;;28.05;45.23;101623.41;4926340;28;98604;-79
2023/08/12 01:36:51;;;;;;;1.20;1.10;;;;;;;28.05;45.20;101628.94;4886214;28;97048;-79
2023/08/12 01:39:19;;;;;;;1.30;1.08;;;;;;;28.05;45.27;101617.88;4913731;28;97420;-79
2023/08/12 01:41:46;;;;;;;1.20;1.10;;;;;;;28.05;45.28;101618.72;4924587;28;96756;-79
2023/08/12 01:44:13;;;;;;;1.40;1.30;;;;;;;28.05;45.11;101613.22;4915723;28;99279;-79
2023/08/12 01:46:39;;;;;;;1.40;1.30;;;;;;;28.04;45.11;101608.75;4924540;28;96772;-79
2023/08/12 01:49:06;;;;;;;1.67;1.25;;;;;;;28.05;45.18;101599.41;4923588;28;96911;-79
2023/08/12 01:51:32;;;;;;;1.38;1.00;;;;;;;28.05;45.29;101606.84;4907606;28;96646;-79
2023/08/12 01:53:59;;;;;;;1.50;1.17;;;;;;;28.04;45.24;101600.47;4905200;28;96789;-79
2023/08/12 01:56:25;;;;;;;1.75;1.17;;;;;;;28.04;45.23;101603.22;4918526;28;97618;-79
2023/08/12 01:58:52;;;;;;;1.17;1.08;;;;;;;28.04;44.86;101594.94;4906786;28;96881;-79
2023/08/12 02:01:19;;;;;;;1.83;1.50;;;;;;;28.04;44.95;101596.84;4906122;28;96803;-79
2023/08/12 02:03:45;;;;;;;1.30;1.10;;;;;;;28.04;45.05;101591.31;4923213;28;97536;-79
2023/08/12 02:06:12;;;;;;;2.03;1.05;;;;;;;28.04;45.16;101603.22;4923191;28;97486;-79
2023/08/12 02:08:38;;;;;;;1.65;1.15;;;;;;;28.05;45.37;101593.03;4918420;28;97470;-79
2023/08/12 02:11:05;;;;;;;1.80;1.45;;;;;;;28.03;45.23;101593.22;4923284;28;96903;-80
2023/08/12 02:13:32;;;;;;;1.33;1.15;;;;;;;28.03;45.00;101584.94;4919482;28;98438;-79
2023/08/12 02:15:59;;;;;;;1.50;1.30;;;;;;;28.05;44.85;101584.75;4918076;28;100601;-79
2023/08/12 02:18:26;;;;;;;1.42;1.30;;;;;;;28.04;45.18;101589.41;4922852;28;96775;-79
2023/08/12 02:20:52;;;;;;;1.10;1.00;;;;;;;28.04;45.22;101586.66;4925025;28;96584;-79
2023/08/12 02:23:19;;;;;;;2.20;1.42;;;;;;;28.04;45.10;101591.31;4922845;28;100526;-79
2023/08/12 02:25:46;;;;;;;1.30;1.20;;;;;;;28.04;45.23;101588.56;4919692;28;96885;-79
2023/08/12 02:28:13;;;;;;;1.10;0.90;;;;;;;28.04;45.16;101588.56;4917178;28;96770;-79
2023/08/12 02:30:43;;;;;;;1.60;1.30;;;;;;;28.04;45.38;101585.81;4924195;28;96692;-79
2023/08/12 02:33:09;;;;;;;1.40;1.20;;;;;;;28.03;45.25;101589.63;4921660;28;100169;-80
2023/08/12 02:35:37;;;;;;;1.55;1.30;;;;;;;28.03;45.40;101579.44;4915034;28;96991;-79
2023/08/12 02:38:03;;;;;;;1.33;1.20;;;;;;;28.03;45.05;101576.66;4919009;28;96861;-79
2023/08/12 02:40:30;;;;;;;1.73;1.30;;;;;;;28.03;45.22;101571.13;4922138;28;96775;-79
2023/08/12 02:42:56;;;;;;;1.73;1.30;;;;;;;28.03;45.25;101576.66;4919150;28;99291;-80
2023/08/12 02:45:23;;;;;;;1.45;1.35;;;;;;;28.02;45.15;101574.97;4901874;28;97499;-80
2023/08/12 02:47:49;;;;;;;1.60;1.15;;;;;;;28.03;45.29;101576.66;4924102;28;96795;-80
2023/08/12 02:50:16;;;;;;;1.98;1.52;;;;;;;28.04;45.17;101572.00;4905470;28;96500;-80
2023/08/12 02:52:43;;;;;;;1.75;1.20;;;;;;;28.05;45.20;101565.41;4922788;28;97762;-80
2023/08/12 02:55:09;;;;;;;1.20;1.10;;;;;;;28.04;45.15;101570.09;4922028;28;100750;-80
2023/08/12 02:57:36;;;;;;;1.40;1.20;;;;;;;28.04;45.12;101560.94;4916922;28;96699;-80
2023/08/12 03:00:04;;;;;;;1.58;1.42;;;;;;;28.04;45.44;101556.28;4921929;28;96501;-80
2023/08/12 03:02:30;;;;;;;2.30;1.25;;;;;;;28.04;45.23;101547.13;4905491;28;99262;-80
2023/08/12 03:04:57;;;;;;;1.60;1.40;;;;;;;28.03;45.21;101540.75;4897287;28;97460;-80
2023/08/12 03:07:23;;;;;;;2.08;1.20;;;;;;;28.04;45.26;101539.72;4905511;28;97057;-80
2023/08/12 03:09:50;;;;;;;2.05;1.30;;;;;;;28.04;45.23;101533.34;4921415;28;96567;-80
2023/08/12 03:12:17;;;;;;;1.48;1.38;;;;;;;28.04;45.35;101533.34;4915299;28;98963;-79
2023/08/12 03:14:43;;;;;;;1.65;1.15;;;;;;;28.03;45.38;101543.53;4901258;28;99096;-80
2023/08/12 03:17:10;;;;;;;1.30;1.20;;;;;;;28.04;45.41;101533.34;4921354;28;97194;-80
2023/08/12 03:19:38;;;;;;;1.55;1.27;;;;;;;28.03;45.34;101534.38;4921567;28;96563;-80
2023/08/12 03:22:04;;;;;;;1.33;1.20;;;;;;;28.03;45.41;101524.19;4905110;28;98968;-80
2023/08/12 03:24:32;;;;;;;1.20;1.10;;;;;;;28.03;45.34;101520.59;4921860;28;96725;-80
2023/08/12 03:26:59;;;;;;;1.15;1.05;;;;;;;28.02;45.21;101528.03;4919637;28;96904;-80
2023/08/12 03:29:26;;;;;;;1.40;1.20;;;;;;;28.02;45.39;101513.38;4914864;28;96960;-80
2023/08/12 03:31:53;;;;;;;1.42;1.33;;;;;;;28.02;45.34;101514.22;4919702;28;100353;-80
2023/08/12 03:34:21;;;;;;;1.45;1.25;;;;;;;28.02;45.60;101514.22;4920567;28;99000;-80
2023/08/12 03:36:50;;;;;;;1.13;1.02;;;;;;;28.01;45.34;101507.00;4905224;28;96817;-80
2023/08/12 03:39:18;;;;;;;1.50;1.30;;;;;;;28.02;45.43;101505.94;4922051;28;97085;-80
2023/08/12 03:41:45;;;;;;;1.25;1.10;;;;;;;28.01;45.69;101501.47;4921287;28;99364;-79
2023/08/12 03:44:11;;;;;;;2.35;1.20;;;;;;;28.02;45.30;101505.06;4920677;28;99749;-79
2023/08/12 03:46:38;;;;;;;1.48;1.30;;;;;;;28.02;45.26;101491.28;4920193;28;96749;-80
2023/08/12 03:49:05;;;;;;;1.85;1.25;;;;;;;28.02;45.34;101494.03;4920920;28;97194;-80
2023/08/12 03:51:31;;;;;;;1.38;1.23;;;;;;;28.02;45.45;101497.66;4917629;28;96790;-80
2023/08/12 03:53:58;;;;;;;2.42;1.40;;;;;;;28.03;45.34;101502.09;4904963;28;97383;-80
2023/08/12 03:56:26;;;;;;;1.58;1.20;;;;;;;28.03;45.33;101498.50;4912483;28;97027;-80
2023/08/12 03:58:53;;;;;;;1.48;1.38;;;;;;;28.03;44.86;101501.25;4921264;28;96901;-80
2023/08/12 04:01:19;;;;;;;1.52;1.40;;;;;;;28.02;45.47;101494.03;4897912;28;97173;-79
2023/08/12 04:03:46;;;;;;;1.20;1.10;;;;;;;28.03;45.12;101484.69;4904237;28;96779;-79
2023/08/12 04:06:13;;;;;;;1.55;1.45;;;;;;;28.02;45.26;101485.75;4900074;28;97466;-80
2023/08/12 04:08:39;;;;;;;2.00;1.38;;;;;;;28.03;45.27;101482.78;4922424;28;96749;-79
2023/08/12 04:11:06;;;;;;;1.60;1.15;;;;;;;28.03;45.30;101484.69;4916455;28;97807;-80
2023/08/12 04:13:33;;;;;;;1.40;1.30;;;;;;;28.02;45.31;101481.06;4921632;28;96672;-79
2023/08/12 04:15:59;;;;;;;1.30;1.20;;;;;;;28.02;45.19;101483.00;4915648;28;97413;-79
2023/08/12 04:18:26;;;;;;;1.83;1.23;;;;;;;28.03;45.70;101488.31;4924556;28;96737;-80
2023/08/12 04:20:53;;;;;;;1.60;1.25;;;;;;;28.02;45.46;101483.00;4915650;28;97887;-80
2023/08/12 04:23:20;;;;;;;1.25;1.15;;;;;;;28.02;45.28;101486.59;4923615;28;96796;-80
2023/08/12 04:25:48;;;;;;;1.48;1.30;;;;;;;28.02;45.40;101489.38;4923724;28;96699;-79
2023/08/12 04:28:15;;;;;;;1.63;1.42;;;;;;;28.03;45.33;101481.94;4927519;28;96853;-80
2023/08/12 04:30:43;;;;;;;1.52;1.40;;;;;;;28.02;45.56;101486.59;4927814;28;97973;-80
2023/08/12 04:33:12;;;;;;;1.55;1.20;;;;;;;28.03;45.48;101481.94;4928843;28;97895;-80
2023/08/12 04:35:40;;;;;;;1.63;1.20;;;;;;;28.01;45.36;101484.91;4929071;28;96607;-80
2023/08/12 04:38:07;;;;;;;1.40;1.30;;;;;;;28.01;45.31;101468.34;4928317;28;96882;-80
2023/08/12 04:40:39;;;;;;;1.23;1.13;;;;;;;28.02;45.37;101463.66;4928007;28;98799;-80
2023/08/12 04:43:08;;;;;;;1.42;1.20;;;;;;;28.01;45.36;101462.81;4928114;28;99723;-80
2023/08/12 04:45:34;;;;;;;1.40;1.30;;;;;;;28.01;45.29;101451.75;4927319;28;96846;-80
2023/08/12 04:48:03;;;;;;;1.52;1.42;;;;;;;28.02;45.41;101452.63;4928171;28;96701;-80
2023/08/12 04:50:34;;;;;;;1.25;1.13;;;;;;;28.01;45.36;101446.25;4920000;28;100133;-80
2023/08/12 04:53:01;;;;;;;2.08;1.30;;;;;;;28.02;45.53;101447.94;4926097;28;96872;-80
2023/08/12 04:55:27;;;;;;;1.67;1.58;;;;;;;28.01;45.55;101449.00;4926731;28;97102;-80
2023/08/12 04:57:54;;;;;;;1.67;1.30;;;;;;;28.02;45.66;101459.00;4907178;28;96884;-80
2023/08/12 05:00:22;;;;;;;1.52;1.40;;;;;;;28.01;45.29;101460.03;4924926;28;99914;-80
2023/08/12 05:02:49;;;;;;;1.30;1.20;;;;;;;28.02;45.29;101460.91;4923530;28;96784;-79
2023/08/12 05:05:16;;;;;;;1.45;1.23;;;;;;;28.01;45.37;101456.44;4922506;28;96801;-79
2023/08/12 05:07:44;;;;;;;1.33;1.20;;;;;;;28.02;45.42;101458.13;4921532;28;96967;-79
2023/08/12 05:10:11;;;;;;;1.30;1.20;;;;;;;28.02;45.35;101458.13;4904747;28;99190;-80
2023/08/12 05:12:37;;;;;;;1.52;1.30;;;;;;;28.02;45.37;101463.66;4918187;28;97426;-79
2023/08/12 05:15:05;;;;;;;1.52;1.42;;;;;;;28.02;45.46;101463.66;4903780;28;96765;-79
2023/08/12 05:17:31;;;;;;;1.17;1.08;;;;;;;28.01;45.26;101461.97;4922386;28;97086;-80
2023/08/12 05:19:58;;;;;;;1.30;1.15;;;;;;;28.01;45.42;101461.97;4924321;28;97330;-80
2023/08/12 05:22:24;;;;;;;1.30;1.20;;;;;;;28.02;45.28;101452.63;4923352;28;96821;-79
2023/08/12 05:24:51;;;;;;;1.10;1.00;;;;;;;28.01;45.50;101449.00;4921252;28;96914;-80
2023/08/12 05:27:17;;;;;;;1.38;1.27;;;;;;;28.01;45.37;101448.16;4925689;28;96778;-80
2023/08/12 05:29:44;;;;;;;1.45;1.33;;;;;;;28.01;45.40;101449.00;4908840;28;97970;-80
2023/08/12 05:32:11;;;;;;;1.48;1.38;;;;;;;28.01;45.59;101437.09;4925357;28;98887;-80
2023/08/12 05:34:37;;;;;;;1.40;1.30;;;;;;;28.00;45.58;101425.22;4925579;28;96750;-80
2023/08/12 05:37:04;;;;;;;1.30;1.20;;;;;;;28.00;45.71;101422.44;4919234;28;97354;-80
2023/08/12 05:39:31;;;;;;;1.77;1.50;;;;;;;28.00;45.61;101411.41;4925651;28;97070;-81
2023/08/12 05:41:57;;;;;;;2.00;1.40;;;;;;;28.01;45.31;101413.09;4919111;28;97913;-81
2023/08/12 05:44:24;;;;;;;1.25;1.00;;;;;;;28.00;45.55;101414.16;4921656;28;97415;-81
2023/08/12 05:46:50;;;;;;;1.45;1.30;;;;;;;28.00;45.72;101422.44;4926216;28;97086;-81
2023/08/12 05:49:17;;;;;;;1.40;1.30;;;;;;;28.00;45.42;101425.22;4926265;28;97779;-80
2023/08/12 05:51:43;;;;;;;2.05;1.40;;;;;;;28.00;45.60;101427.13;4928449;28;96745;-81
2023/08/12 05:54:10;;;;;;;1.83;1.23;;;;;;;28.00;45.71;101427.13;4926399;28;96746;-81
2023/08/12 05:56:36;;;;;;;1.38;1.27;;;;;;;28.00;45.61;101418.84;4927379;28;97045;-81
2023/08/12 05:59:03;;;;;;;1.10;1.00;;;;;;;28.01;45.69;101409.50;4921785;28;97601;-81
2023/08/12 06:01:30;;;;;;;1.50;1.15;;;;;;;28.00;45.56;101427.13;4928933;28;97987;-81
2023/08/12 06:03:56;;;;;;;1.33;1.23;;;;;;;27.99;45.48;101420.75;4920201;28;96873;-81
2023/08/12 06:06:23;;;;;;;1.50;1.13;;;;;;;27.99;45.59;101417.13;4928190;28;96834;-81
2023/08/12 06:08:49;;;;;;;1.42;1.33;;;;;;;27.99;45.42;101422.66;4926577;28;99812;-80
2023/08/12 06:11:16;;;;;;;1.50;1.00;;;;;;;27.99;45.49;101415.22;4923242;28;96819;-80
2023/08/12 06:13:42;;;;;;;1.60;1.20;;;;;;;28.00;45.56;101418.84;4926786;28;96954;-81
2023/08/12 06:16:09;;;;;;;1.20;1.10;;;;;;;27.99;45.56;101422.66;4921396;28;97354;-81
2023/08/12 06:18:36;;;;;;;1.23;1.10;;;;;;;27.98;45.67;101416.28;4925343;28;96866;-81
2023/08/12 06:21:02;;;;;;;1.10;1.00;;;;;;;27.97;45.75;101417.34;4903436;28;98215;-81
2023/08/12 06:23:30;;;;;;;1.45;1.20;;;;;;;27.98;45.51;101405.25;4927837;28;96050;-81
2023/08/12 06:25:56;;;;;;;1.42;1.33;;;;;;;27.97;45.89;101405.47;4929375;28;96526;-81
2023/08/12 06:28:23;;;;;;;1.27;1.13;;;;;;;27.98;45.66;101390.59;4922533;28;96844;-82
2023/08/12 06:30:50;;;;;;;1.23;1.00;;;;;;;27.98;45.44;101396.09;4901800;28;97964;-81
2023/08/12 06:33:17;;;;;;;1.40;1.30;;;;;;;27.97;45.55;101399.94;4927881;28;96478;-81
2023/08/12 06:35:44;;;;;;;1.73;1.40;;;;;;;27.97;45.71;101403.53;4929761;28;96835;-81
2023/08/12 06:38:14;;;;;;;1.00;0.90;;;;;;;27.96;45.66;101395.47;4926522;28;96944;-82
2023/08/12 06:40:40;;;;;;;1.30;1.20;;;;;;;27.98;45.67;101396.09;4927631;28;96681;-81
2023/08/12 06:43:08;;;;;;;1.40;1.30;;;;;;;27.97;45.83;101394.41;4927570;28;97716;-81
2023/08/12 06:45:35;;;;;;;1.50;1.40;;;;;;;27.96;45.61;101388.03;4920968;28;96958;-81
2023/08/12 06:48:02;;;;;;;1.40;1.30;;;;;;;27.96;45.66;101381.66;4922223;28;96831;-81
2023/08/12 06:50:28;;;;;;;1.35;1.25;;;;;;;27.97;45.67;101384.22;4920875;28;96678;-81
2023/08/12 06:52:55;;;;;;;1.25;1.15;;;;;;;27.96;45.71;101381.66;4925032;28;96755;-81
2023/08/12 06:55:22;;;;;;;1.40;1.23;;;;;;;27.97;45.63;101383.38;4922754;28;96726;-81
2023/08/12 06:57:48;;;;;;;2.15;1.30;;;;;;;27.97;45.78;101386.13;4923286;28;98146;-81
2023/08/12 07:00:15;;;;;;;1.65;1.17;;;;;;;27.97;45.84;101394.41;4922952;28;99186;-81
2023/08/12 07:02:42;;;;;;;1.20;1.10;;;;;;;27.97;45.31;101383.38;4921662;28;97002;-81
2023/08/12 07:05:09;;;;;;;1.30;1.20;;;;;;;27.98;45.66;101387.81;4925305;28;96886;-81
2023/08/12 07:07:36;;;;;;;1.30;1.20;;;;;;;27.96;45.64;101378.91;4919717;28;98166;-82
2023/08/12 07:10:04;;;;;;;1.40;1.10;;;;;;;27.96;45.65;101371.47;4924806;28;96745;-81
2023/08/12 07:12:30;;;;;;;1.25;1.15;;;;;;;27.96;45.54;101370.63;4921440;28;96935;-81
2023/08/12 07:14:57;;;;;;;0.88;0.85;;;;;;;27.97;45.67;101367.66;4905321;28;96820;-80
2023/08/12 07:17:24;;;;;;;1.70;1.40;;;;;;;27.95;45.51;101358.72;4923127;28;97084;-81
2023/08/12 07:19:50;;;;;;;1.00;0.90;;;;;;;27.96;45.91;101365.09;4922970;28;100574;-81
2023/08/12 07:22:19;;;;;;;1.20;1.10;;;;;;;27.95;45.66;101358.72;4933134;28;96703;-81
2023/08/12 07:24:45;;;;;;;1.33;1.20;;;;;;;27.95;45.54;101357.88;4922885;28;96822;-81
2023/08/12 07:27:12;;;;;;;1.65;1.35;;;;;;;27.95;45.86;101364.25;4922708;28;97768;-82
2023/08/12 07:29:39;;;;;;;1.40;1.30;;;;;;;27.97;45.94;101370.41;4922961;28;99692;-81
2023/08/12 07:32:05;;;;;;;1.20;0.98;;;;;;;27.97;45.91;101369.56;4924576;28;96334;-81
2023/08/12 07:34:32;;;;;;;1.20;1.10;;;;;;;27.97;45.56;101364.88;4914496;28;98105;-81
2023/08/12 07:36:58;;;;;;;1.10;1.00;;;;;;;27.97;45.63;101367.66;4919299;28;96960;-81
2023/08/12 07:39:25;;;;;;;1.27;1.17;;;;;;;27.98;45.73;101361.06;4928234;28;97416;-81
2023/08/12 07:41:52;;;;;;;1.58;1.10;;;;;;;27.97;45.61;101359.38;4905275;28;97359;-82
2023/08/12 07:44:19;;;;;;;1.13;1.02;;;;;;;27.97;45.85;101362.13;4918317;28;96854;-81
2023/08/12 07:46:45;;;;;;;1.40;1.20;;;;;;;27.98;45.49;101351.94;4925468;28;98846;-81
2023/08/12 07:49:12;;;;;;;1.50;1.10;;;;;;;27.99;45.36;101354.47;4924951;28;96790;-80
2023/08/12 07:51:38;;;;;;;1.27;1.10;;;;;;;27.99;45.83;101350.88;4925599;28;97077;-81
2023/08/12 07:54:06;;;;;;;1.30;1.10;;;;;;;27.99;45.55;101348.97;4909182;28;96689;-81
2023/08/12 07:56:32;;;;;;;1.77;1.17;;;;;;;28.00;45.82;101347.06;4921289;28;96935;-81
2023/08/12 07:58:59;;;;;;;1.20;1.10;;;;;;;28.00;45.67;101356.19;4922801;28;96670;-81
2023/08/12 08:01:25;;;;;;;1.50;1.35;;;;;;;28.00;45.54;101350.66;4926292;28;97589;-81
2023/08/12 08:03:52;;;;;;;1.13;1.02;;;;;;;28.00;45.54;101350.66;4931291;28;98332;-81
2023/08/12 08:06:19;;;;;;;1.60;1.02;;;;;;;27.99;45.44;101343.44;4913680;28;99943;-80
2023/08/12 08:08:45;;;;;;;1.33;1.17;;;;;;;28.00;45.88;101347.06;4931651;28;96721;-81
2023/08/12 08:11:12;;;;;;;1.40;1.13;;;;;;;28.00;45.72;101339.63;4931414;28;96895;-80
2023/08/12 08:13:38;;;;;;;1.23;1.13;;;;;;;28.00;45.60;101333.25;4932068;28;96755;-81
2023/08/12 08:16:05;;;;;;;1.63;1.30;;;;;;;28.00;45.72;101336.00;4924769;28;96714;-81
2023/08/12 08:18:32;;;;;;;1.15;1.00;;;;;;;28.00;45.75;101336.00;4927541;28;98234;-81
2023/08/12 08:20:59;;;;;;;1.13;1.02;;;;;;;28.00;45.64;101341.53;4929936;28;96660;-81
2023/08/12 08:23:31;;;;;;;1.30;1.10;;;;;;;27.99;45.82;101340.69;4930844;28;96991;-81
2023/08/12 08:25:58;;;;;;;1.27;1.10;;;;;;;28.00;45.48;101338.78;4928374;28;99059;-81
2023/08/12 08:28:24;;;;;;;1.48;1.10;;;;;;;28.00;45.52;101342.38;4918050;28;97719;-81
2023/08/12 08:30:51;;;;;;;1.73;1.13;;;;;;;28.00;45.65;101347.06;4926234;28;96736;-80
2023/08/12 08:33:17;;;;;;;0.90;0.90;;;;;;;28.00;45.76;101350.66;4922211;28;96884;-80
2023/08/12 08:35:44;;;;;;;0.95;0.93;;;;;;;28.00;45.87;101350.66;4916466;28;96979;-80
2023/08/12 08:38:10;;;;;;;1.10;0.90;;;;;;;28.00;45.76;101347.06;4908489;28;97281;-81
2023/08/12 08:40:37;;;;;;;1.20;1.10;;;;;;;28.01;45.77;101351.50;4911678;28;96692;-81
2023/08/12 08:43:07;;;;;;;1.17;1.05;;;;;;;28.00;45.67;101350.66;4913937;28;96879;-80
2023/08/12 08:45:34;;;;;;;1.52;1.42;;;;;;;28.01;45.90;101346.00;4897480;28;99147;-81
2023/08/12 08:48:01;;;;;;;1.02;0.90;;;;;;;28.01;45.69;101351.50;4914816;28;96726;-81
2023/08/12 08:50:30;;;;;;;1.30;1.20;;;;;;;28.01;45.87;101349.59;4906736;28;97170;-80
2023/08/12 08:52:57;;;;;;;1.40;1.00;;;;;;;28.02;45.82;101356.81;4913099;28;96911;-81
2023/08/12 08:55:24;;;;;;;1.27;0.85;;;;;;;28.03;45.93;101365.97;4916067;28;96900;-81
2023/08/12 08:57:50;;;;;;;1.50;1.15;;;;;;;28.03;45.77;101372.31;4914762;28;96965;-80
2023/08/12 09:00:18;;;;;;;1.30;1.20;;;;;;;28.04;45.53;101367.66;4914736;28;96799;-80
2023/08/12 09:02:46;;;;;;;1.10;1.00;;;;;;;28.02;45.82;101372.53;4912202;28;96908;-81
2023/08/12 09:05:14;;;;;;;1.40;1.02;;;;;;;28.04;45.89;101362.13;4913316;28;98112;-80
2023/08/12 09:07:44;;;;;;;1.13;1.02;;;;;;;28.03;45.56;101375.09;4914566;28;98285;-80
2023/08/12 09:10:11;;;;;;;1.40;1.10;;;;;;;28.04;45.68;101387.00;4897701;28;96865;-81
2023/08/12 09:12:41;;;;;;;1.33;1.02;;;;;;;28.04;45.75;101384.22;4910759;28;96755;-81
2023/08/12 09:15:09;;;;;;;1.02;0.93;;;;;;;28.04;45.54;101378.69;4898349;28;99052;-81
2023/08/12 09:17:36;;;;;;;1.30;1.20;;;;;;;28.05;45.50;101372.13;4913219;28;97491;-80
2023/08/12 09:20:07;;;;;;;1.35;1.10;;;;;;;28.06;45.88;101387.63;4915782;28;97964;-80
2023/08/12 09:22:34;;;;;;;1.15;1.05;;;;;;;28.06;45.63;101384.88;4899916;28;96944;-81
2023/08/12 09:25:02;;;;;;;1.20;1.00;;;;;;;28.05;45.61;101385.94;4908907;28;98011;-81
2023/08/12 09:27:31;;;;;;;1.00;0.90;;;;;;;28.05;45.65;101384.00;4916738;28;97697;-80
2023/08/12 09:29:58;;;;;;;1.63;1.13;;;;;;;28.04;45.76;101393.34;4918179;28;96784;-81
2023/08/12 09:32:25;;;;;;;1.30;1.17;;;;;;;28.05;45.70;101396.97;4921106;28;96861;-81
2023/08/12 09:34:54;;;;;;;1.42;1.10;;;;;;;28.06;45.79;101393.16;4913773;28;96884;-81
2023/08/12 09:37:23;;;;;;;1.23;1.10;;;;;;;28.07;45.69;101392.09;4929226;28;96708;-81
2023/08/12 09:39:51;;;;;;;1.17;1.05;;;;;;;28.07;45.95;101397.59;4928990;28;97112;-81
2023/08/12 09:42:19;;;;;;;1.45;0.82;;;;;;;28.08;45.65;101396.56;4921684;28;97559;-81
2023/08/12 09:44:46;;;;;;;1.05;0.93;;;;;;;28.08;45.73;101407.59;4922836;28;100030;-82
2023/08/12 09:47:13;;;;;;;1.10;0.90;;;;;;;28.07;45.63;101403.97;4927145;28;96699;-81
2023/08/12 09:49:40;;;;;;;1.10;1.00;;;;;;;28.08;45.71;101408.44;4929621;28;96830;-80
2023/08/12 09:52:07;;;;;;;1.23;1.13;;;;;;;28.08;45.58;101399.31;4929307;28;96709;-81
2023/08/12 09:54:35;;;;;;;1.08;0.98;;;;;;;28.08;45.71;101400.16;4928453;28;96908;-81
2023/08/12 09:57:03;;;;;;;1.33;1.10;;;;;;;28.09;45.57;101395.50;4930133;28;96812;-81
2023/08/12 09:59:32;;;;;;;0.80;0.77;;;;;;;28.09;45.53;101389.97;4909629;28;96532;-80
2023/08/12 10:01:59;;;;;;;1.33;1.10;;;;;;;28.10;45.61;101397.19;4922179;28;97160;-80
2023/08/12 10:04:29;;;;;;;1.30;1.02;;;;;;;28.10;45.66;101395.28;4912426;28;98700;-81
2023/08/12 10:06:56;;;;;;;1.35;0.98;;;;;;;28.11;45.66;101401.66;4930002;28;97861;-80
2023/08/12 10:09:23;;;;;;;0.95;0.90;;;;;;;28.10;45.49;101405.47;4936662;28;96984;-80
2023/08/12 10:11:52;;;;;;;1.05;0.95;;;;;;;28.11;45.72;101408.03;4929378;28;96735;-80
2023/08/12 10:14:19;;;;;;;0.98;0.80;;;;;;;28.11;45.66;101409.94;4928367;28;97104;-80
2023/08/12 10:16:46;;;;;;;1.02;0.93;;;;;;;28.12;45.54;101398.69;4927779;28;97599;-80
2023/08/12 10:19:17;;;;;;;1.10;1.00;;;;;;;28.14;45.78;101404.00;4927607;28;96987;-80
2023/08/12 10:21:44;;;;;;;1.65;1.20;;;;;;;28.14;45.84;101404.84;4932025;28;96640;-81
2023/08/12 10:24:11;;;;;;;1.17;0.95;;;;;;;28.14;45.76;101417.78;4928482;28;97065;-81
2023/08/12 10:26:39;;;;;;;0.90;0.80;;;;;;;28.15;45.51;101417.59;4929284;28;98655;-80
2023/08/12 10:29:06;;;;;;;1.00;0.90;;;;;;;28.17;46.03;101425.66;4912560;28;96749;-80
2023/08/12 10:31:33;;;;;;;1.05;0.93;;;;;;;28.17;45.62;101420.13;4927623;28;96686;-80
2023/08/12 10:34:00;;;;;;;1.00;0.90;;;;;;;28.17;45.67;101423.75;4926924;28;97001;-80
2023/08/12 10:36:27;;;;;;;0.88;0.85;;;;;;;28.18;45.69;101416.31;4927616;28;98749;-80
2023/08/12 10:38:56;;;;;;;1.17;0.95;;;;;;;28.18;45.55;101417.16;4912193;28;96606;-80
2023/08/12 10:41:24;;;;;;;0.90;0.80;;;;;;;28.17;45.55;101418.22;4926262;28;96727;-80
2023/08/12 10:44:03;;;;;;;1.02;0.93;;;;;;;28.19;45.83;101415.25;4926412;28;96754;-80
2023/08/12 10:46:31;;;;;;;1.08;0.90;;;;;;;28.17;45.68;101415.47;4921182;28;97695;-80
2023/08/12 10:49:11;;;;;;;0.70;0.70;;;;;;;28.19;45.52;101412.50;4927597;28;96589;-79
2023/08/12 10:51:51;;;;;;;1.33;1.00;;;;;;;28.18;45.73;101405.25;4908683;28;96529;-80
2023/08/12 10:54:30;;;;;;;0.95;0.80;;;;;;;28.19;45.73;101412.50;4922188;28;96817;-80
2023/08/12 10:57:08;;;;;;;0.85;0.77;;;;;;;28.19;45.56;101415.25;4923062;28;96670;-80
2023/08/12 10:59:48;;;;;;;1.13;1.02;;;;;;;28.20;45.73;101416.94;4928943;28;96570;-80
2023/08/12 11:02:30;;;;;;;1.00;0.90;;;;;;;28.20;45.68;101410.56;4926878;28;96646;-80
2023/08/12 11:05:02;;;;;;;1.23;0.90;;;;;;;28.19;45.64;101412.50;4925304;28;98536;-80
2023/08/12 11:07:38;;;;;;;0.70;0.70;;;;;;;28.20;45.75;101427.16;4923609;28;97276;-80
2023/08/12 11:10:19;;;;;;;0.93;0.80;;;;;;;28.19;45.57;101420.78;4925716;28;96696;-80
2023/08/12 11:12:52;;;;;;;0.90;0.70;;;;;;;28.19;45.67;101418.00;4925230;28;96552;-80
2023/08/12 11:15:45;;;;;;;0.77;0.73;;;;;;;28.20;45.65;101421.63;4924756;28;96827;-80
2023/08/12 11:18:20;;;;;;;1.13;0.90;;;;;;;28.20;45.71;101425.25;4911578;28;100187;-80
2023/08/12 11:20:48;;;;;;;1.10;1.00;;;;;;;28.20;45.34;101422.47;4925371;28;96645;-80
2023/08/12 11:23:15;;;;;;;1.00;0.80;;;;;;;28.19;45.83;101420.78;4929667;28;96848;-80
2023/08/12 11:25:44;;;;;;;1.80;0.80;;;;;;;28.20;46.14;101414.19;4928233;28;96903;-80